Orto / Ocaso: 05:34 / 18:56 UTC (Datos para LEAX 21-04-2019)

[fuente: ADDS]

METAR:


LEMG 211000Z 27006KT 9999 FEW025 SCT080 18/10 Q1008 NOSIG =
TAF LEMG 210500Z 2106/2206 29006KT 9999 FEW020 TX19/2112Z TN14/2106Z PROB30 TEMPO 2112/2118 4000 SHRA FEW030CB TEMPO 2112/2118 13006KT LEGR 211000Z 03006KT 350V070 9999 FEW034 SCT040 BKN065 14/08 Q1008 =
TAF LEGR 210800Z 2109/2209 VRB02KT 9999 SCT040 TX17/2115Z TN07/2206Z TEMPO 2110/2120 03010KT LEZL 211000Z 04009KT 350V080 9999 FEW040 18/09 Q1009 NOSIG =
TAF LEZL 210800Z 2109/2209 05008KT 9999 FEW040 TX20/2115Z TN10/2206Z LEAM 211000Z 22004KT 7000 -RA FEW020 BKN045 BKN050 14/12 Q1007 =
TAF LEAM 210800Z 2109/2209 33006KT 9999 FEW020 TX20/2115Z TN12/2207Z TEMPO 2109/2120 4000 SHRA FEW030CB BECMG 2111/2113 19010KT BECMG 2120/2122 33005KT LEBA 211000Z 05009KT 020V110 9999 FEW040 16/07 Q1009 =
TAF LEBA 210800Z 2109/2118 06008KT 9999 FEW040 LEJR 211000Z 02009KT 350V050 9999 FEW050 17/10 Q1009 =
TAF LEJR 210500Z 2106/2206 VRB02KT 9999 FEW030 TX18/2114Z TN10/2106Z PROB30 TEMPO 2106/2109 3000 BR BECMG 2108/2110 05010KT GEML 211000Z 36011KT 330V030 9999 BKN007 BKN038 15/12 Q1008 =
TAF GEML 210800Z 2109/2209 33005KT 9999 FEW020 TX20/2112Z TN13/2206Z PROB30 TEMPO 2109/2112 3000 SHRA BR BKN010 FEW030CB LXGB 210950Z 19007KT 9999 FEW025 BKN090 17/12 Q1008 NOSIG =
TAF LXGB 210732Z 2109/2118 24007KT 9999 FEW030 PROB30 TEMPO 2109/2118 6000 SHRA BKN030CB PROB40 TEMPO 2110/2118 18012KT 520001

TAFOR:


TAF LEMG 210500Z 2106/2206 29006KT 9999 FEW020 TX19/2112Z TN14/2106Z PROB30 TEMPO 2112/2118 4000 SHRA FEW030CB TEMPO 2112/2118 13006KT =
TAF LEGR 210800Z 2109/2209 VRB02KT 9999 SCT040 TX17/2115Z TN07/2206Z TEMPO 2110/2120 03010KT =
TAF LEZL 210800Z 2109/2209 05008KT 9999 FEW040 TX20/2115Z TN10/2206Z =
TAF LEAM 210800Z 2109/2209 33006KT 9999 FEW020 TX20/2115Z TN12/2207Z TEMPO 2109/2120 4000 SHRA FEW030CB BECMG 2111/2113 19010KT BECMG 2120/2122 33005KT =
TAF LEBA 210800Z 2109/2118 06008KT 9999 FEW040 =
TAF LEJR 210500Z 2106/2206 VRB02KT 9999 FEW030 TX18/2114Z TN10/2106Z PROB30 TEMPO 2106/2109 3000 BR BECMG 2108/2110 05010KT =
TAF GEML 210800Z 2109/2209 33005KT 9999 FEW020 TX20/2112Z TN13/2206Z PROB30 TEMPO 2109/2112 3000 SHRA BR BKN010 FEW030CB =
TAF LXGB 210732Z 2109/2118 24007KT 9999 FEW030 PROB30 TEMPO 2109/2118 6000 SHRA BKN030CB PROB40 TEMPO 2110/2118 18012KT 520001 =

Recuerde que, aunque regularmente actualizada, la información meteorológica aquí presentada no debe ser utilizada para la planificación de vuelos. Si lo desea, puede consultar la información meteorológica adecuada, tanto de aeródromos como en ruta, por las vías oficialmente establecidas en la legislación -> AQUí